sensor_id;sensor_type;location;lat;lon;timestamp;temperature;humidity
2913;DHT22;1466;48.778;9.166;2023-02-13T00:01:58;6.20;99.90
2913;DHT22;1466;48.778;9.166;2023-02-13T00:04:24;6.20;99.90
2913;DHT22;1466;48.778;9.166;2023-02-13T00:06:49;6.20;99.90
2913;DHT22;1466;48.778;9.166;2023-02-13T00:09:15;6.20;99.90
2913;DHT22;1466;48.778;9.166;2023-02-13T00:11:41;6.20;99.90
2913;DHT22;1466;48.778;9.166;2023-02-13T00:14:06;6.20;99.90
2913;DHT22;1466;48.778;9.166;2023-02-13T00:16:33;6.20;99.90
2913;DHT22;1466;48.778;9.166;2023-02-13T00:18:58;6.30;99.90
2913;DHT22;1466;48.778;9.166;2023-02-13T00:21:24;6.30;99.90
2913;DHT22;1466;48.778;9.166;2023-02-13T00:23:49;6.30;99.90
2913;DHT22;1466;48.778;9.166;2023-02-13T00:26:16;6.20;99.90
2913;DHT22;1466;48.778;9.166;2023-02-13T00:28:42;6.20;99.90
2913;DHT22;1466;48.778;9.166;2023-02-13T00:31:16;6.10;99.90
2913;DHT22;1466;48.778;9.166;2023-02-13T00:33:42;6.10;99.90
2913;DHT22;1466;48.778;9.166;2023-02-13T00:38:35;6.10;99.90
2913;DHT22;1466;48.778;9.166;2023-02-13T00:41:02;6.10;99.90
2913;DHT22;1466;48.778;9.166;2023-02-13T00:43:27;6.00;99.90
2913;DHT22;1466;48.778;9.166;2023-02-13T00:45:53;6.00;99.90
2913;DHT22;1466;48.778;9.166;2023-02-13T00:48:19;5.90;99.90
2913;DHT22;1466;48.778;9.166;2023-02-13T00:50:46;5.90;99.90
2913;DHT22;1466;48.778;9.166;2023-02-13T00:53:12;5.90;99.90
2913;DHT22;1466;48.778;9.166;2023-02-13T00:55:39;5.80;99.90
2913;DHT22;1466;48.778;9.166;2023-02-13T00:58:04;5.80;99.90
2913;DHT22;1466;48.778;9.166;2023-02-13T01:00:30;5.90;99.90
2913;DHT22;1466;48.778;9.166;2023-02-13T01:02:56;6.00;99.90
2913;DHT22;1466;48.778;9.166;2023-02-13T01:05:21;5.90;99.90
2913;DHT22;1466;48.778;9.166;2023-02-13T01:07:47;5.90;99.90
2913;DHT22;1466;48.778;9.166;2023-02-13T01:10:12;5.90;99.90
2913;DHT22;1466;48.778;9.166;2023-02-13T01:12:38;5.80;99.90
2913;DHT22;1466;48.778;9.166;2023-02-13T01:15:05;5.80;99.90
2913;DHT22;1466;48.778;9.166;2023-02-13T01:17:31;5.90;99.90
2913;DHT22;1466;48.778;9.166;2023-02-13T01:19:56;5.90;99.90
2913;DHT22;1466;48.778;9.166;2023-02-13T01:22:22;5.90;99.90
2913;DHT22;1466;48.778;9.166;2023-02-13T01:24:47;5.90;99.90
2913;DHT22;1466;48.778;9.166;2023-02-13T01:27:13;5.80;99.90
2913;DHT22;1466;48.778;9.166;2023-02-13T01:29:38;5.80;99.90
2913;DHT22;1466;48.778;9.166;2023-02-13T01:32:04;5.80;99.90
2913;DHT22;1466;48.778;9.166;2023-02-13T01:34:33;5.70;99.90
2913;DHT22;1466;48.778;9.166;2023-02-13T01:36:58;5.70;99.90
2913;DHT22;1466;48.778;9.166;2023-02-13T01:39:24;5.70;99.90
2913;DHT22;1466;48.778;9.166;2023-02-13T01:41:50;5.60;99.90
2913;DHT22;1466;48.778;9.166;2023-02-13T01:44:50;5.60;99.90
2913;DHT22;1466;48.778;9.166;2023-02-13T01:47:41;5.60;99.90
2913;DHT22;1466;48.778;9.166;2023-02-13T01:50:11;5.50;99.90
2913;DHT22;1466;48.778;9.166;2023-02-13T01:52:41;5.50;99.90
2913;DHT22;1466;48.778;9.166;2023-02-13T01:55:08;5.50;99.90
2913;DHT22;1466;48.778;9.166;2023-02-13T01:57:36;5.50;99.90
2913;DHT22;1466;48.778;9.166;2023-02-13T02:00:07;5.50;99.90
2913;DHT22;1466;48.778;9.166;2023-02-13T02:02:38;5.50;99.90
2913;DHT22;1466;48.778;9.166;2023-02-13T02:05:05;5.60;99.90
2913;DHT22;1466;48.778;9.166;2023-02-13T02:07:32;5.70;99.90
2913;DHT22;1466;48.778;9.166;2023-02-13T02:10:02;5.60;99.90
2913;DHT22;1466;48.778;9.166;2023-02-13T02:15:02;5.60;99.90
2913;DHT22;1466;48.778;9.166;2023-02-13T02:17:29;5.60;99.90
2913;DHT22;1466;48.778;9.166;2023-02-13T02:21:05;5.60;99.90
2913;DHT22;1466;48.778;9.166;2023-02-13T02:33:36;5.40;99.90
2913;DHT22;1466;48.778;9.166;2023-02-13T02:39:03;5.40;99.90
2913;DHT22;1466;48.778;9.166;2023-02-13T02:41:57;5.40;99.90
2913;DHT22;1466;48.778;9.166;2023-02-13T02:44:40;5.40;99.90
2913;DHT22;1466;48.778;9.166;2023-02-13T02:55:52;5.20;99.90
2913;DHT22;1466;48.778;9.166;2023-02-13T02:58:30;5.20;99.90
2913;DHT22;1466;48.778;9.166;2023-02-13T03:01:18;5.20;99.90
2913;DHT22;1466;48.778;9.166;2023-02-13T03:04:05;5.20;99.90
2913;DHT22;1466;48.778;9.166;2023-02-13T03:06:55;5.20;99.90
2913;DHT22;1466;48.778;9.166;2023-02-13T03:09:31;5.30;99.90
2913;DHT22;1466;48.778;9.166;2023-02-13T03:12:20;5.20;99.90
2913;DHT22;1466;48.778;9.166;2023-02-13T03:15:19;5.20;99.90
2913;DHT22;1466;48.778;9.166;2023-02-13T03:17:46;5.20;99.90
2913;DHT22;1466;48.778;9.166;2023-02-13T03:20:48;5.10;99.90
2913;DHT22;1466;48.778;9.166;2023-02-13T03:23:50;5.10;99.90
2913;DHT22;1466;48.778;9.166;2023-02-13T03:29:27;5.00;99.90
2913;DHT22;1466;48.778;9.166;2023-02-13T03:34:37;5.00;99.90
2913;DHT22;1466;48.778;9.166;2023-02-13T03:37:30;5.00;99.90
2913;DHT22;1466;48.778;9.166;2023-02-13T03:42:58;5.00;99.90
2913;DHT22;1466;48.778;9.166;2023-02-13T03:45:35;5.00;99.90
2913;DHT22;1466;48.778;9.166;2023-02-13T03:48:20;5.00;99.90
2913;DHT22;1466;48.778;9.166;2023-02-13T03:51:07;5.00;99.90
2913;DHT22;1466;48.778;9.166;2023-02-13T03:53:37;5.00;99.90
2913;DHT22;1466;48.778;9.166;2023-02-13T03:56:05;5.00;99.90
2913;DHT22;1466;48.778;9.166;2023-02-13T03:58:53;5.00;99.90
2913;DHT22;1466;48.778;9.166;2023-02-13T04:01:41;5.00;99.90
2913;DHT22;1466;48.778;9.166;2023-02-13T04:06:59;5.00;99.90
2913;DHT22;1466;48.778;9.166;2023-02-13T04:09:26;4.90;99.90
2913;DHT22;1466;48.778;9.166;2023-02-13T04:12:13;5.00;99.90
2913;DHT22;1466;48.778;9.166;2023-02-13T04:15:18;5.00;99.90
2913;DHT22;1466;48.778;9.166;2023-02-13T04:17:47;5.00;99.90
2913;DHT22;1466;48.778;9.166;2023-02-13T04:20:14;5.00;99.90
2913;DHT22;1466;48.778;9.166;2023-02-13T04:22:47;5.00;99.90
2913;DHT22;1466;48.778;9.166;2023-02-13T04:25:15;5.00;99.90
2913;DHT22;1466;48.778;9.166;2023-02-13T04:27:41;4.90;99.90
2913;DHT22;1466;48.778;9.166;2023-02-13T04:30:07;4.90;99.90
2913;DHT22;1466;48.778;9.166;2023-02-13T04:32:33;4.80;99.90
2913;DHT22;1466;48.778;9.166;2023-02-13T04:34:59;4.80;99.90
2913;DHT22;1466;48.778;9.166;2023-02-13T04:37:24;4.80;99.90
2913;DHT22;1466;48.778;9.166;2023-02-13T04:39:50;4.70;99.90
2913;DHT22;1466;48.778;9.166;2023-02-13T04:42:15;4.70;99.90
2913;DHT22;1466;48.778;9.166;2023-02-13T04:44:41;4.70;99.90
2913;DHT22;1466;48.778;9.166;2023-02-13T04:47:06;4.70;99.90
2913;DHT22;1466;48.778;9.166;2023-02-13T04:49:32;4.70;99.90
2913;DHT22;1466;48.778;9.166;2023-02-13T04:51:58;4.70;99.90
2913;DHT22;1466;48.778;9.166;2023-02-13T04:54:23;4.70;99.90
2913;DHT22;1466;48.778;9.166;2023-02-13T04:56:49;4.60;99.90
2913;DHT22;1466;48.778;9.166;2023-02-13T04:59:14;4.60;99.90
2913;DHT22;1466;48.778;9.166;2023-02-13T05:01:40;4.50;99.90
2913;DHT22;1466;48.778;9.166;2023-02-13T05:04:05;4.50;99.90
2913;DHT22;1466;48.778;9.166;2023-02-13T05:06:31;4.50;99.90
2913;DHT22;1466;48.778;9.166;2023-02-13T05:08:57;4.50;99.90
2913;DHT22;1466;48.778;9.166;2023-02-13T05:11:22;4.50;99.90
2913;DHT22;1466;48.778;9.166;2023-02-13T05:13:48;4.50;99.90
2913;DHT22;1466;48.778;9.166;2023-02-13T05:16:13;4.50;99.90
2913;DHT22;1466;48.778;9.166;2023-02-13T05:18:39;4.50;99.90
2913;DHT22;1466;48.778;9.166;2023-02-13T05:21:04;4.50;99.90
2913;DHT22;1466;48.778;9.166;2023-02-13T05:23:48;4.50;99.90
2913;DHT22;1466;48.778;9.166;2023-02-13T05:26:14;4.50;99.90
2913;DHT22;1466;48.778;9.166;2023-02-13T05:28:39;4.50;99.90
2913;DHT22;1466;48.778;9.166;2023-02-13T05:31:23;4.50;99.90
2913;DHT22;1466;48.778;9.166;2023-02-13T05:33:49;4.50;99.90
2913;DHT22;1466;48.778;9.166;2023-02-13T05:36:14;4.50;99.90
2913;DHT22;1466;48.778;9.166;2023-02-13T05:38:40;4.50;99.90
2913;DHT22;1466;48.778;9.166;2023-02-13T05:41:06;4.50;99.90
2913;DHT22;1466;48.778;9.166;2023-02-13T05:43:31;4.50;99.90
2913;DHT22;1466;48.778;9.166;2023-02-13T05:46:08;4.50;99.90
2913;DHT22;1466;48.778;9.166;2023-02-13T05:48:34;4.50;99.90
2913;DHT22;1466;48.778;9.166;2023-02-13T05:51:00;4.40;99.90
2913;DHT22;1466;48.778;9.166;2023-02-13T05:53:25;4.50;99.90
2913;DHT22;1466;48.778;9.166;2023-02-13T05:55:51;4.50;99.90
2913;DHT22;1466;48.778;9.166;2023-02-13T05:58:20;4.50;99.90
2913;DHT22;1466;48.778;9.166;2023-02-13T06:00:46;4.50;99.90
2913;DHT22;1466;48.778;9.166;2023-02-13T06:03:12;4.50;99.90
2913;DHT22;1466;48.778;9.166;2023-02-13T06:05:38;4.50;99.90
2913;DHT22;1466;48.778;9.166;2023-02-13T06:08:03;4.50;99.90
2913;DHT22;1466;48.778;9.166;2023-02-13T06:10:29;4.50;99.90
2913;DHT22;1466;48.778;9.166;2023-02-13T06:12:55;4.50;99.90
2913;DHT22;1466;48.778;9.166;2023-02-13T06:15:20;4.50;99.90
2913;DHT22;1466;48.778;9.166;2023-02-13T06:17:46;4.50;99.90
2913;DHT22;1466;48.778;9.166;2023-02-13T06:20:11;4.50;99.90
2913;DHT22;1466;48.778;9.166;2023-02-13T06:22:37;4.50;99.90
2913;DHT22;1466;48.778;9.166;2023-02-13T06:25:03;4.40;99.90
2913;DHT22;1466;48.778;9.166;2023-02-13T06:27:28;4.40;99.90
2913;DHT22;1466;48.778;9.166;2023-02-13T06:29:54;4.50;99.90
2913;DHT22;1466;48.778;9.166;2023-02-13T06:32:20;4.50;99.90
2913;DHT22;1466;48.778;9.166;2023-02-13T06:34:46;4.50;99.90
2913;DHT22;1466;48.778;9.166;2023-02-13T06:37:13;4.40;99.90
2913;DHT22;1466;48.778;9.166;2023-02-13T06:39:39;4.50;99.90
2913;DHT22;1466;48.778;9.166;2023-02-13T06:42:05;4.50;99.90
2913;DHT22;1466;48.778;9.166;2023-02-13T06:44:32;4.50;99.90
2913;DHT22;1466;48.778;9.166;2023-02-13T06:46:59;4.50;99.90
2913;DHT22;1466;48.778;9.166;2023-02-13T06:49:25;4.60;99.90
2913;DHT22;1466;48.778;9.166;2023-02-13T06:51:52;4.60;99.90
2913;DHT22;1466;48.778;9.166;2023-02-13T06:54:19;4.60;99.90
2913;DHT22;1466;48.778;9.166;2023-02-13T06:56:47;4.60;99.90
2913;DHT22;1466;48.778;9.166;2023-02-13T06:59:13;4.70;99.90
2913;DHT22;1466;48.778;9.166;2023-02-13T07:01:39;4.70;99.90
2913;DHT22;1466;48.778;9.166;2023-02-13T07:04:04;4.70;99.90
2913;DHT22;1466;48.778;9.166;2023-02-13T07:06:30;4.60;99.90
2913;DHT22;1466;48.778;9.166;2023-02-13T07:08:55;4.60;99.90
2913;DHT22;1466;48.778;9.166;2023-02-13T07:11:23;4.50;99.90
2913;DHT22;1466;48.778;9.166;2023-02-13T07:13:49;4.50;99.90
2913;DHT22;1466;48.778;9.166;2023-02-13T07:16:15;4.50;99.90
2913;DHT22;1466;48.778;9.166;2023-02-13T07:18:41;4.50;99.90
2913;DHT22;1466;48.778;9.166;2023-02-13T07:21:07;4.50;99.90
2913;DHT22;1466;48.778;9.166;2023-02-13T07:23:33;4.50;99.90
2913;DHT22;1466;48.778;9.166;2023-02-13T07:25:59;4.50;99.90
2913;DHT22;1466;48.778;9.166;2023-02-13T07:28:26;4.50;99.90
2913;DHT22;1466;48.778;9.166;2023-02-13T07:30:51;4.60;99.90
2913;DHT22;1466;48.778;9.166;2023-02-13T07:33:17;4.60;99.90
2913;DHT22;1466;48.778;9.166;2023-02-13T07:35:47;4.60;99.90
2913;DHT22;1466;48.778;9.166;2023-02-13T07:38:13;4.60;99.90
2913;DHT22;1466;48.778;9.166;2023-02-13T07:40:38;4.60;99.90
2913;DHT22;1466;48.778;9.166;2023-02-13T07:43:04;4.60;99.90
2913;DHT22;1466;48.778;9.166;2023-02-13T07:45:29;4.70;99.90
2913;DHT22;1466;48.778;9.166;2023-02-13T07:47:55;4.70;99.90
2913;DHT22;1466;48.778;9.166;2023-02-13T07:50:21;4.70;99.90
2913;DHT22;1466;48.778;9.166;2023-02-13T07:52:58;4.80;99.90
2913;DHT22;1466;48.778;9.166;2023-02-13T07:55:24;4.80;99.90
2913;DHT22;1466;48.778;9.166;2023-02-13T07:57:50;4.80;99.90
2913;DHT22;1466;48.778;9.166;2023-02-13T08:00:17;4.80;99.90
2913;DHT22;1466;48.778;9.166;2023-02-13T08:02:43;4.80;99.90
2913;DHT22;1466;48.778;9.166;2023-02-13T08:05:09;4.90;99.90
2913;DHT22;1466;48.778;9.166;2023-02-13T08:07:35;4.90;99.90
2913;DHT22;1466;48.778;9.166;2023-02-13T08:10:02;5.00;99.90
2913;DHT22;1466;48.778;9.166;2023-02-13T08:12:46;5.10;99.90
2913;DHT22;1466;48.778;9.166;2023-02-13T08:15:13;5.20;99.90
2913;DHT22;1466;48.778;9.166;2023-02-13T08:17:39;5.30;99.90
2913;DHT22;1466;48.778;9.166;2023-02-13T08:20:06;5.30;99.90
2913;DHT22;1466;48.778;9.166;2023-02-13T08:22:36;5.50;99.90
2913;DHT22;1466;48.778;9.166;2023-02-13T08:25:01;5.60;99.90
2913;DHT22;1466;48.778;9.166;2023-02-13T08:27:27;5.70;99.90
2913;DHT22;1466;48.778;9.166;2023-02-13T08:29:55;5.80;99.90
2913;DHT22;1466;48.778;9.166;2023-02-13T08:32:21;5.80;99.90
2913;DHT22;1466;48.778;9.166;2023-02-13T08:34:46;5.90;99.90
2913;DHT22;1466;48.778;9.166;2023-02-13T08:37:12;5.90;99.90
2913;DHT22;1466;48.778;9.166;2023-02-13T08:39:38;5.90;99.90
2913;DHT22;1466;48.778;9.166;2023-02-13T08:42:03;6.00;99.90
2913;DHT22;1466;48.778;9.166;2023-02-13T08:44:29;6.00;99.90
2913;DHT22;1466;48.778;9.166;2023-02-13T08:46:55;6.00;99.90
2913;DHT22;1466;48.778;9.166;2023-02-13T08:49:20;6.10;99.90
2913;DHT22;1466;48.778;9.166;2023-02-13T08:51:48;6.20;99.90
2913;DHT22;1466;48.778;9.166;2023-02-13T08:54:14;6.20;99.90
2913;DHT22;1466;48.778;9.166;2023-02-13T08:56:40;6.30;99.90
2913;DHT22;1466;48.778;9.166;2023-02-13T08:59:05;6.40;99.90
2913;DHT22;1466;48.778;9.166;2023-02-13T09:01:31;6.60;99.90
2913;DHT22;1466;48.778;9.166;2023-02-13T09:03:57;6.70;99.90
2913;DHT22;1466;48.778;9.166;2023-02-13T09:06:22;6.80;99.90
2913;DHT22;1466;48.778;9.166;2023-02-13T09:08:50;6.90;99.90
2913;DHT22;1466;48.778;9.166;2023-02-13T09:11:16;6.90;99.90
2913;DHT22;1466;48.778;9.166;2023-02-13T09:13:42;7.00;99.90
2913;DHT22;1466;48.778;9.166;2023-02-13T09:16:07;7.10;99.90
2913;DHT22;1466;48.778;9.166;2023-02-13T09:18:34;7.10;99.90
2913;DHT22;1466;48.778;9.166;2023-02-13T09:21:03;7.20;99.90
2913;DHT22;1466;48.778;9.166;2023-02-13T09:23:33;7.40;99.90
2913;DHT22;1466;48.778;9.166;2023-02-13T09:26:04;7.80;99.90
2913;DHT22;1466;48.778;9.166;2023-02-13T09:28:31;8.10;99.90
2913;DHT22;1466;48.778;9.166;2023-02-13T09:30:57;8.40;99.90
2913;DHT22;1466;48.778;9.166;2023-02-13T09:33:23;8.60;99.90
2913;DHT22;1466;48.778;9.166;2023-02-13T09:35:49;8.80;99.90
2913;DHT22;1466;48.778;9.166;2023-02-13T09:38:15;8.80;99.90
2913;DHT22;1466;48.778;9.166;2023-02-13T09:40:55;8.90;99.90
2913;DHT22;1466;48.778;9.166;2023-02-13T09:46:06;8.90;99.90
2913;DHT22;1466;48.778;9.166;2023-02-13T09:48:35;8.80;99.90
2913;DHT22;1466;48.778;9.166;2023-02-13T09:51:03;8.80;99.90
2913;DHT22;1466;48.778;9.166;2023-02-13T09:53:29;8.80;99.90
2913;DHT22;1466;48.778;9.166;2023-02-13T09:58:43;8.70;99.90
2913;DHT22;1466;48.778;9.166;2023-02-13T10:01:36;8.50;99.90
2913;DHT22;1466;48.778;9.166;2023-02-13T10:04:30;8.30;99.90
2913;DHT22;1466;48.778;9.166;2023-02-13T10:15:21;8.10;99.90
2913;DHT22;1466;48.778;9.166;2023-02-13T10:17:55;8.20;99.90
2913;DHT22;1466;48.778;9.166;2023-02-13T10:23:34;8.40;99.90
2913;DHT22;1466;48.778;9.166;2023-02-13T10:26:15;8.50;99.90
2913;DHT22;1466;48.778;9.166;2023-02-13T10:31:37;8.80;99.90
2913;DHT22;1466;48.778;9.166;2023-02-13T10:34:05;9.00;99.90
2913;DHT22;1466;48.778;9.166;2023-02-13T10:36:36;9.10;99.90
2913;DHT22;1466;48.778;9.166;2023-02-13T10:41:44;9.50;99.90
2913;DHT22;1466;48.778;9.166;2023-02-13T11:00:52;10.40;98.60
2913;DHT22;1466;48.778;9.166;2023-02-13T11:03:25;10.60;98.40
2913;DHT22;1466;48.778;9.166;2023-02-13T11:05:52;10.90;98.10
2913;DHT22;1466;48.778;9.166;2023-02-13T11:08:40;11.10;97.80
2913;DHT22;1466;48.778;9.166;2023-02-13T11:11:04;11.10;97.20
2913;DHT22;1466;48.778;9.166;2023-02-13T11:14:13;11.20;97.30
2913;DHT22;1466;48.778;9.166;2023-02-13T11:16:50;11.20;97.10
2913;DHT22;1466;48.778;9.166;2023-02-13T11:25:17;11.00;96.60
2913;DHT22;1466;48.778;9.166;2023-02-13T11:27:45;11.00;96.40
2913;DHT22;1466;48.778;9.166;2023-02-13T11:30:31;10.90;96.50
2913;DHT22;1466;48.778;9.166;2023-02-13T11:35:41;10.90;96.30
2913;DHT22;1466;48.778;9.166;2023-02-13T11:40:37;10.90;96.10
2913;DHT22;1466;48.778;9.166;2023-02-13T11:43:06;10.90;96.10
2913;DHT22;1466;48.778;9.166;2023-02-13T11:45:32;11.00;96.10
2913;DHT22;1466;48.778;9.166;2023-02-13T11:47:58;11.00;96.40
2913;DHT22;1466;48.778;9.166;2023-02-13T11:50:33;11.00;95.80
2913;DHT22;1466;48.778;9.166;2023-02-13T11:53:08;11.00;95.80
2913;DHT22;1466;48.778;9.166;2023-02-13T11:55:59;11.00;95.70
2913;DHT22;1466;48.778;9.166;2023-02-13T11:58:27;11.00;95.70
2913;DHT22;1466;48.778;9.166;2023-02-13T12:03:43;11.00;95.50
2913;DHT22;1466;48.778;9.166;2023-02-13T12:06:20;10.90;95.50
2913;DHT22;1466;48.778;9.166;2023-02-13T12:08:47;11.00;95.30
2913;DHT22;1466;48.778;9.166;2023-02-13T12:11:46;10.90;95.30
2913;DHT22;1466;48.778;9.166;2023-02-13T12:14:21;10.90;95.30
2913;DHT22;1466;48.778;9.166;2023-02-13T12:16:48;10.90;95.20
2913;DHT22;1466;48.778;9.166;2023-02-13T12:19:27;10.90;95.20
2913;DHT22;1466;48.778;9.166;2023-02-13T12:25:00;10.80;95.00
2913;DHT22;1466;48.778;9.166;2023-02-13T12:27:41;10.70;95.00
2913;DHT22;1466;48.778;9.166;2023-02-13T12:38:55;10.90;95.20
2913;DHT22;1466;48.778;9.166;2023-02-13T12:41:22;11.00;95.30
2913;DHT22;1466;48.778;9.166;2023-02-13T12:47:28;10.90;95.20
2913;DHT22;1466;48.778;9.166;2023-02-13T12:52:39;10.80;95.40
2913;DHT22;1466;48.778;9.166;2023-02-13T13:01:18;11.00;95.20
2913;DHT22;1466;48.778;9.166;2023-02-13T13:12:17;11.20;95.20
2913;DHT22;1466;48.778;9.166;2023-02-13T13:17:50;11.20;95.00
2913;DHT22;1466;48.778;9.166;2023-02-13T13:23:20;11.30;94.90
2913;DHT22;1466;48.778;9.166;2023-02-13T13:28:44;11.20;94.70
2913;DHT22;1466;48.778;9.166;2023-02-13T13:31:12;11.30;94.70
2913;DHT22;1466;48.778;9.166;2023-02-13T13:33:44;11.30;94.80
2913;DHT22;1466;48.778;9.166;2023-02-13T13:36:15;11.40;94.80
2913;DHT22;1466;48.778;9.166;2023-02-13T13:54:45;11.40;94.50
2913;DHT22;1466;48.778;9.166;2023-02-13T13:57:18;11.40;94.50
2913;DHT22;1466;48.778;9.166;2023-02-13T14:07:45;11.50;94.50
2913;DHT22;1466;48.778;9.166;2023-02-13T14:31:31;11.70;94.20
2913;DHT22;1466;48.778;9.166;2023-02-13T14:34:02;11.70;94.30
2913;DHT22;1466;48.778;9.166;2023-02-13T14:36:44;11.80;94.30
2913;DHT22;1466;48.778;9.166;2023-02-13T14:39:31;11.80;94.30
2913;DHT22;1466;48.778;9.166;2023-02-13T14:42:00;11.80;94.20
2913;DHT22;1466;48.778;9.166;2023-02-13T14:44:35;11.80;94.20
2913;DHT22;1466;48.778;9.166;2023-02-13T14:47:11;11.90;94.20
2913;DHT22;1466;48.778;9.166;2023-02-13T14:49:39;11.80;94.00
2913;DHT22;1466;48.778;9.166;2023-02-13T14:52:28;11.80;94.10
2913;DHT22;1466;48.778;9.166;2023-02-13T14:55:47;11.80;94.10
2913;DHT22;1466;48.778;9.166;2023-02-13T14:57:52;11.80;94.10
2913;DHT22;1466;48.778;9.166;2023-02-13T15:05:55;11.70;93.90
2913;DHT22;1466;48.778;9.166;2023-02-13T15:08:28;11.70;94.00
2913;DHT22;1466;48.778;9.166;2023-02-13T15:10:56;11.60;94.00
2913;DHT22;1466;48.778;9.166;2023-02-13T15:13:40;11.60;94.10
2913;DHT22;1466;48.778;9.166;2023-02-13T15:16:11;11.60;94.00
2913;DHT22;1466;48.778;9.166;2023-02-13T15:18:46;11.60;93.90
2913;DHT22;1466;48.778;9.166;2023-02-13T15:21:15;11.60;94.30
2913;DHT22;1466;48.778;9.166;2023-02-13T15:23:42;11.50;94.00
2913;DHT22;1466;48.778;9.166;2023-02-13T15:26:15;11.50;94.10
2913;DHT22;1466;48.778;9.166;2023-02-13T15:28:57;11.40;94.10
2913;DHT22;1466;48.778;9.166;2023-02-13T15:31:24;11.40;94.10
2913;DHT22;1466;48.778;9.166;2023-02-13T15:33:50;11.60;94.20
2913;DHT22;1466;48.778;9.166;2023-02-13T15:36:19;11.90;94.20
2913;DHT22;1466;48.778;9.166;2023-02-13T15:38:46;12.30;93.90
2913;DHT22;1466;48.778;9.166;2023-02-13T15:41:23;12.30;93.70
2913;DHT22;1466;48.778;9.166;2023-02-13T15:43:55;11.90;93.40
2913;DHT22;1466;48.778;9.166;2023-02-13T15:46:32;11.60;93.60
2913;DHT22;1466;48.778;9.166;2023-02-13T15:49:03;11.40;93.80
2913;DHT22;1466;48.778;9.166;2023-02-13T15:51:30;11.30;93.90
2913;DHT22;1466;48.778;9.166;2023-02-13T15:53:58;11.20;94.00
2913;DHT22;1466;48.778;9.166;2023-02-13T15:56:24;11.10;94.30
2913;DHT22;1466;48.778;9.166;2023-02-13T15:58:51;11.10;94.10
2913;DHT22;1466;48.778;9.166;2023-02-13T16:01:18;11.00;94.40
2913;DHT22;1466;48.778;9.166;2023-02-13T16:03:49;11.00;94.20
2913;DHT22;1466;48.778;9.166;2023-02-13T16:06:17;10.90;94.20
2913;DHT22;1466;48.778;9.166;2023-02-13T16:08:45;10.80;94.30
2913;DHT22;1466;48.778;9.166;2023-02-13T16:16:26;10.50;94.50
2913;DHT22;1466;48.778;9.166;2023-02-13T16:18:53;10.40;94.80
2913;DHT22;1466;48.778;9.166;2023-02-13T16:21:24;10.30;95.00
2913;DHT22;1466;48.778;9.166;2023-02-13T16:23:58;10.20;95.20
2913;DHT22;1466;48.778;9.166;2023-02-13T16:26:25;10.00;95.30
2913;DHT22;1466;48.778;9.166;2023-02-13T16:28:51;10.00;95.60
2913;DHT22;1466;48.778;9.166;2023-02-13T16:31:17;9.90;96.10
2913;DHT22;1466;48.778;9.166;2023-02-13T16:33:44;9.90;96.20
2913;DHT22;1466;48.778;9.166;2023-02-13T16:38:48;9.90;96.20
2913;DHT22;1466;48.778;9.166;2023-02-13T16:44:05;9.90;96.30
2913;DHT22;1466;48.778;9.166;2023-02-13T16:46:58;9.80;96.20
2913;DHT22;1466;48.778;9.166;2023-02-13T16:49:28;9.80;96.40
2913;DHT22;1466;48.778;9.166;2023-02-13T16:51:57;9.80;96.50
2913;DHT22;1466;48.778;9.166;2023-02-13T16:54:30;9.70;96.50
2913;DHT22;1466;48.778;9.166;2023-02-13T16:57:03;9.70;96.50
2913;DHT22;1466;48.778;9.166;2023-02-13T16:59:31;9.70;96.80
2913;DHT22;1466;48.778;9.166;2023-02-13T17:02:14;9.60;96.60
2913;DHT22;1466;48.778;9.166;2023-02-13T17:04:46;9.60;96.70
2913;DHT22;1466;48.778;9.166;2023-02-13T17:07:18;9.50;96.70
2913;DHT22;1466;48.778;9.166;2023-02-13T17:09:44;9.40;96.90
2913;DHT22;1466;48.778;9.166;2023-02-13T17:12:17;9.30;97.00
2913;DHT22;1466;48.778;9.166;2023-02-13T17:14:43;9.10;97.20
2913;DHT22;1466;48.778;9.166;2023-02-13T17:17:14;9.00;97.40
2913;DHT22;1466;48.778;9.166;2023-02-13T17:19:41;8.90;97.60
2913;DHT22;1466;48.778;9.166;2023-02-13T17:22:07;8.80;97.70
2913;DHT22;1466;48.778;9.166;2023-02-13T17:24:37;8.80;97.80
2913;DHT22;1466;48.778;9.166;2023-02-13T17:27:03;8.80;97.90
2913;DHT22;1466;48.778;9.166;2023-02-13T17:29:28;8.80;97.90
2913;DHT22;1466;48.778;9.166;2023-02-13T17:31:55;8.70;97.90
2913;DHT22;1466;48.778;9.166;2023-02-13T17:34:21;8.70;97.80
2913;DHT22;1466;48.778;9.166;2023-02-13T17:36:46;8.70;97.90
2913;DHT22;1466;48.778;9.166;2023-02-13T17:39:12;8.70;98.00
2913;DHT22;1466;48.778;9.166;2023-02-13T17:41:38;8.70;97.90
2913;DHT22;1466;48.778;9.166;2023-02-13T17:44:08;8.70;97.90
2913;DHT22;1466;48.778;9.166;2023-02-13T17:46:36;8.70;97.90
2913;DHT22;1466;48.778;9.166;2023-02-13T17:49:01;8.70;97.90
2913;DHT22;1466;48.778;9.166;2023-02-13T17:51:29;8.70;97.90
2913;DHT22;1466;48.778;9.166;2023-02-13T17:53:55;8.70;98.00
2913;DHT22;1466;48.778;9.166;2023-02-13T17:56:21;8.60;97.90
2913;DHT22;1466;48.778;9.166;2023-02-13T17:58:47;8.60;97.90
2913;DHT22;1466;48.778;9.166;2023-02-13T18:01:12;8.50;98.00
2913;DHT22;1466;48.778;9.166;2023-02-13T18:03:38;8.40;98.00
2913;DHT22;1466;48.778;9.166;2023-02-13T18:06:05;8.40;98.20
2913;DHT22;1466;48.778;9.166;2023-02-13T18:08:31;8.40;98.20
2913;DHT22;1466;48.778;9.166;2023-02-13T18:10:56;8.40;98.20
2913;DHT22;1466;48.778;9.166;2023-02-13T18:13:22;8.30;98.20
2913;DHT22;1466;48.778;9.166;2023-02-13T18:15:47;8.20;98.20
2913;DHT22;1466;48.778;9.166;2023-02-13T18:18:15;8.10;98.20
2913;DHT22;1466;48.778;9.166;2023-02-13T18:20:42;8.10;98.30
2913;DHT22;1466;48.778;9.166;2023-02-13T18:23:08;8.00;98.40
2913;DHT22;1466;48.778;9.166;2023-02-13T18:25:34;7.90;98.40
2913;DHT22;1466;48.778;9.166;2023-02-13T18:28:00;7.90;98.50
2913;DHT22;1466;48.778;9.166;2023-02-13T18:30:26;7.80;98.60
2913;DHT22;1466;48.778;9.166;2023-02-13T18:32:53;7.90;98.70
2913;DHT22;1466;48.778;9.166;2023-02-13T18:35:20;7.80;98.80
2913;DHT22;1466;48.778;9.166;2023-02-13T18:37:46;7.80;98.90
2913;DHT22;1466;48.778;9.166;2023-02-13T18:40:13;7.70;98.70
2913;DHT22;1466;48.778;9.166;2023-02-13T18:42:42;7.60;98.80
2913;DHT22;1466;48.778;9.166;2023-02-13T18:45:09;7.60;99.00
2913;DHT22;1466;48.778;9.166;2023-02-13T18:47:36;7.60;98.90
2913;DHT22;1466;48.778;9.166;2023-02-13T18:50:02;7.50;98.90
2913;DHT22;1466;48.778;9.166;2023-02-13T18:52:28;7.40;98.90
2913;DHT22;1466;48.778;9.166;2023-02-13T18:54:54;7.40;98.90
2913;DHT22;1466;48.778;9.166;2023-02-13T18:57:20;7.40;99.10
2913;DHT22;1466;48.778;9.166;2023-02-13T18:59:46;7.30;99.10
2913;DHT22;1466;48.778;9.166;2023-02-13T19:02:12;7.30;99.10
2913;DHT22;1466;48.778;9.166;2023-02-13T19:04:37;7.30;99.20
2913;DHT22;1466;48.778;9.166;2023-02-13T19:07:03;7.20;99.10
2913;DHT22;1466;48.778;9.166;2023-02-13T19:09:29;7.20;99.20
2913;DHT22;1466;48.778;9.166;2023-02-13T19:11:54;7.10;99.40
2913;DHT22;1466;48.778;9.166;2023-02-13T19:14:20;7.10;99.80
2913;DHT22;1466;48.778;9.166;2023-02-13T19:16:47;7.10;99.60
2913;DHT22;1466;48.778;9.166;2023-02-13T19:19:13;7.10;99.60
2913;DHT22;1466;48.778;9.166;2023-02-13T19:21:38;7.10;99.50
2913;DHT22;1466;48.778;9.166;2023-02-13T19:24:06;7.10;99.60
2913;DHT22;1466;48.778;9.166;2023-02-13T19:26:33;7.10;99.60
2913;DHT22;1466;48.778;9.166;2023-02-13T19:28:59;7.20;99.50
2913;DHT22;1466;48.778;9.166;2023-02-13T19:31:26;7.10;99.40
2913;DHT22;1466;48.778;9.166;2023-02-13T19:33:52;7.10;99.50
2913;DHT22;1466;48.778;9.166;2023-02-13T19:36:21;7.10;99.50
2913;DHT22;1466;48.778;9.166;2023-02-13T19:38:51;7.00;99.40
2913;DHT22;1466;48.778;9.166;2023-02-13T19:41:17;6.90;99.50
2913;DHT22;1466;48.778;9.166;2023-02-13T19:43:44;6.80;99.80
2913;DHT22;1466;48.778;9.166;2023-02-13T19:46:22;6.80;99.80